createdAt,value
2019-03-22T00:00:32.043Z,44.70
2019-03-22T00:03:01.530Z,40.70
2019-03-22T00:05:30.887Z,39.57
2019-03-22T00:08:00.255Z,47.13
2019-03-22T00:10:29.617Z,42.60
2019-03-22T00:12:59.085Z,39.10
2019-03-22T00:15:28.594Z,42.80
2019-03-22T00:17:58.223Z,46.27
2019-03-22T00:20:27.657Z,41.90
2019-03-22T00:22:57.033Z,40.97
2019-03-22T00:25:26.428Z,42.97
2019-03-22T00:27:55.941Z,42.50
2019-03-22T00:30:25.313Z,37.50
2019-03-22T00:32:54.696Z,42.90
2019-03-22T00:35:24.234Z,45.40
2019-03-22T00:37:53.631Z,41.37
2019-03-22T00:40:23.253Z,44.50
2019-03-22T00:42:52.679Z,43.60
2019-03-22T00:45:22.166Z,47.43
2019-03-22T00:47:51.551Z,45.23
2019-03-22T00:50:21.317Z,45.10
2019-03-22T00:52:50.690Z,42.17
2019-03-22T00:55:20.126Z,42.70
2019-03-22T00:57:49.577Z,44.50
2019-03-22T01:00:19.104Z,44.80
2019-03-22T01:02:48.525Z,44.70
2019-03-22T01:05:18.273Z,47.00
2019-03-22T01:07:47.827Z,48.23
2019-03-22T01:10:17.316Z,50.20
2019-03-22T01:12:46.946Z,49.43
2019-03-22T01:15:16.526Z,43.80
2019-03-22T01:17:45.957Z,46.57
2019-03-22T01:20:15.602Z,45.90
2019-03-22T01:22:45.133Z,53.67
2019-03-22T01:25:14.575Z,54.30
2019-03-22T01:27:44.099Z,57.47
2019-03-22T01:30:14.422Z,48.80
2019-03-22T01:32:43.965Z,50.90
2019-03-22T01:35:13.694Z,53.30
2019-03-22T01:37:43.111Z,48.47
2019-03-22T01:40:14.765Z,49.07
2019-03-22T01:42:44.184Z,53.17
2019-03-22T01:45:13.951Z,49.90
2019-03-22T01:47:43.469Z,48.73
2019-03-22T01:50:13.914Z,51.53
2019-03-22T01:52:43.461Z,56.10
2019-03-22T01:55:13.118Z,52.77
2019-03-22T01:57:52.375Z,51.20
2019-03-22T02:00:15.031Z,52.77
2019-03-22T02:02:44.511Z,51.33
2019-03-22T02:05:14.303Z,53.37
2019-03-22T02:07:43.757Z,52.33
2019-03-22T02:10:13.533Z,50.27
2019-03-22T02:12:43.045Z,58.30
2019-03-22T02:15:13.703Z,53.30
2019-03-22T02:17:43.312Z,55.00
2019-03-22T02:20:13.570Z,57.73
2019-03-22T02:22:43.115Z,55.07
2019-03-22T02:25:12.974Z,62.47
2019-03-22T02:27:43.764Z,61.00
2019-03-22T02:30:14.280Z,63.00
2019-03-22T02:32:43.738Z,59.10
2019-03-22T02:35:27.418Z,59.67
2019-03-22T02:37:44.942Z,59.87
2019-03-22T02:40:14.751Z,61.93
2019-03-22T02:42:44.258Z,69.13
2019-03-22T02:45:14.105Z,57.87
2019-03-22T02:47:43.777Z,58.73
2019-03-22T02:50:18.521Z,64.40
2019-03-22T02:52:45.345Z,60.93
2019-03-22T02:55:15.166Z,66.80
2019-03-22T02:57:44.536Z,61.80
2019-03-22T03:00:14.642Z,65.47
2019-03-22T03:02:44.310Z,60.80
2019-03-22T03:05:14.377Z,64.13
2019-03-22T03:07:43.921Z,70.13
2019-03-22T03:10:14.678Z,68.43
2019-03-22T03:12:44.465Z,65.13
2019-03-22T03:15:14.383Z,77.57
2019-03-22T03:17:44.116Z,72.33
2019-03-22T03:20:14.006Z,65.93
2019-03-22T03:22:43.505Z,61.20
2019-03-22T03:25:13.289Z,69.87
2019-03-22T03:27:42.672Z,71.50
2019-03-22T03:30:14.001Z,70.20
2019-03-22T03:32:43.516Z,72.53
2019-03-22T03:35:13.151Z,67.77
2019-03-22T03:37:42.615Z,73.77
2019-03-22T03:40:12.379Z,72.40
2019-03-22T03:42:41.844Z,77.50
2019-03-22T03:45:35.087Z,73.60
2019-03-22T03:48:05.746Z,79.73
2019-03-22T03:50:35.334Z,68.67
2019-03-22T03:53:05.174Z,69.57
2019-03-22T03:55:34.698Z,80.83
2019-03-22T03:58:04.456Z,80.40
2019-03-22T04:00:33.994Z,73.03
2019-03-22T04:03:03.425Z,71.73
2019-03-22T04:05:32.787Z,82.00
2019-03-22T04:08:02.240Z,72.40
2019-03-22T04:10:31.762Z,78.30
2019-03-22T04:13:01.243Z,74.10
2019-03-22T04:15:30.621Z,76.23
2019-03-22T04:17:59.995Z,78.13
2019-03-22T04:20:29.378Z,76.43
2019-03-22T04:23:00.003Z,81.37
2019-03-22T04:25:29.530Z,72.77
2019-03-22T04:27:58.965Z,75.43
2019-03-22T04:30:28.411Z,74.83
2019-03-22T04:32:57.801Z,71.80
2019-03-22T04:35:27.315Z,74.23
2019-03-22T04:37:56.721Z,72.40
2019-03-22T04:40:27.426Z,76.70
2019-03-22T04:42:57.442Z,74.83
2019-03-22T04:45:30.196Z,71.83
2019-03-22T04:48:12.349Z,78.40
2019-03-22T04:50:43.889Z,72.40
2019-03-22T04:53:18.197Z,70.73
2019-03-22T04:55:52.691Z,68.93
2019-03-22T04:58:23.842Z,81.43
2019-03-22T05:00:55.272Z,79.20
2019-03-22T05:03:26.694Z,76.30
2019-03-22T05:05:59.087Z,73.63
2019-03-22T05:08:30.677Z,70.73
2019-03-22T05:11:02.540Z,64.97
2019-03-22T05:13:33.831Z,70.27
2019-03-22T05:16:04.131Z,67.47
2019-03-22T05:18:35.227Z,72.17
2019-03-22T05:21:06.558Z,77.57
2019-03-22T05:23:36.969Z,75.77
2019-03-22T05:26:06.780Z,60.53
2019-03-22T05:28:37.373Z,65.83
2019-03-22T05:31:35.460Z,69.87
2019-03-22T05:34:05.004Z,71.10
2019-03-22T05:36:34.379Z,64.30
2019-03-22T05:39:05.521Z,69.23
2019-03-22T05:41:35.042Z,70.03
2019-03-22T05:44:04.617Z,67.90
2019-03-22T05:46:34.198Z,69.77
2019-03-22T05:49:03.657Z,73.83
2019-03-22T05:51:33.149Z,69.07
2019-03-22T05:54:02.615Z,67.40
2019-03-22T05:56:31.998Z,70.40
2019-03-22T05:59:01.558Z,69.10
2019-03-22T06:01:30.918Z,65.63
2019-03-22T06:04:00.382Z,68.37
2019-03-22T06:06:29.823Z,64.40
2019-03-22T06:08:59.337Z,63.37
2019-03-22T06:11:28.779Z,66.93
2019-03-22T06:13:58.259Z,58.23
2019-03-22T06:16:27.695Z,58.13
2019-03-22T06:18:57.201Z,70.83
2019-03-22T06:21:26.574Z,55.13
2019-03-22T06:23:55.964Z,60.90
2019-03-22T06:26:25.375Z,64.60
2019-03-22T06:28:54.827Z,54.57
2019-03-22T06:31:24.296Z,60.40
2019-03-22T06:33:53.818Z,56.23
2019-03-22T06:36:24.222Z,56.03
2019-03-22T06:38:53.918Z,59.50
2019-03-22T06:41:23.299Z,56.27
2019-03-22T06:43:52.967Z,54.60
2019-03-22T06:46:23.355Z,57.00
2019-03-22T06:48:52.977Z,54.67
2019-03-22T06:51:22.642Z,52.57
2019-03-22T06:53:52.110Z,54.73
2019-03-22T06:56:21.533Z,52.20
2019-03-22T06:58:51.044Z,56.33
2019-03-22T07:01:20.499Z,51.23
2019-03-22T07:03:50.309Z,52.77
2019-03-22T07:06:19.740Z,51.43
2019-03-22T07:08:49.195Z,49.90
2019-03-22T07:11:18.597Z,49.17
2019-03-22T07:13:47.969Z,49.97
2019-03-22T07:16:17.314Z,50.20
2019-03-22T07:18:46.697Z,51.37
2019-03-22T07:21:16.045Z,50.47
2019-03-22T07:23:45.634Z,46.40
2019-03-22T07:26:15.113Z,47.90
2019-03-22T07:28:44.497Z,48.93
2019-03-22T07:31:13.957Z,47.00
2019-03-22T07:33:43.423Z,47.10
2019-03-22T07:36:12.940Z,47.73
2019-03-22T07:38:42.308Z,43.87
2019-03-22T07:41:11.761Z,53.80
2019-03-22T07:43:41.236Z,52.53
2019-03-22T07:46:10.902Z,51.23
2019-03-22T07:48:40.486Z,50.60
2019-03-22T07:51:09.962Z,51.43
2019-03-22T07:53:39.566Z,56.57
2019-03-22T07:56:08.937Z,56.20
2019-03-22T07:58:38.421Z,54.87
2019-03-22T08:01:08.018Z,56.07
2019-03-22T08:06:18.242Z,54.50
2019-03-22T08:08:47.759Z,62.87
2019-03-22T08:11:17.202Z,56.33
2019-03-22T08:13:46.585Z,61.07
2019-03-22T08:16:16.407Z,60.50
2019-03-22T08:18:45.785Z,60.93
2019-03-22T08:23:52.181Z,66.30
2019-03-22T08:26:40.762Z,58.60
2019-03-22T08:29:10.318Z,69.47
2019-03-22T08:31:58.908Z,66.80
2019-03-22T08:34:28.470Z,68.60
2019-03-22T08:37:16.952Z,73.00
2019-03-22T08:39:46.485Z,72.60
2019-03-22T08:42:15.989Z,76.40
2019-03-22T08:44:45.580Z,78.07
2019-03-22T08:47:15.091Z,69.47
2019-03-22T08:49:45.505Z,68.60
2019-03-22T08:52:15.419Z,71.30
2019-03-22T08:54:45.088Z,90.00
2019-03-22T08:57:14.587Z,75.87
2019-03-22T08:59:44.125Z,78.70
2019-03-22T09:02:13.697Z,81.97
2019-03-22T09:04:43.166Z,76.40
2019-03-22T09:07:12.554Z,87.43
2019-03-22T09:09:42.327Z,87.30
2019-03-22T09:12:11.754Z,88.10
2019-03-22T09:14:41.303Z,91.97
2019-03-22T09:17:10.774Z,90.47
2019-03-22T09:19:40.267Z,89.83
2019-03-22T09:22:09.640Z,84.77
2019-03-22T09:24:39.658Z,79.20
2019-03-22T09:27:09.386Z,95.80
2019-03-22T09:29:38.813Z,87.73
2019-03-22T09:32:08.256Z,91.03
2019-03-22T09:34:37.821Z,89.73
2019-03-22T09:37:09.085Z,87.07
2019-03-22T09:39:38.804Z,87.27
2019-03-22T09:42:08.365Z,93.07
2019-03-22T09:44:43.367Z,85.37
2019-03-22T09:47:08.961Z,83.30
2019-03-22T09:49:38.630Z,92.37
2019-03-22T09:52:08.078Z,99.73
2019-03-22T09:54:37.496Z,92.07
2019-03-22T09:57:06.940Z,83.43
2019-03-22T09:59:36.482Z,95.00
2019-03-22T10:02:06.193Z,93.60
2019-03-22T10:04:35.695Z,90.83
2019-03-22T10:07:05.279Z,93.23
2019-03-22T10:09:34.633Z,95.97
2019-03-22T10:12:04.122Z,92.50
2019-03-22T10:14:33.570Z,94.60
2019-03-22T10:17:02.966Z,95.57
2019-03-22T10:19:32.488Z,95.30
2019-03-22T10:22:02.006Z,91.37
2019-03-22T10:24:31.516Z,91.73
2019-03-22T10:27:01.568Z,95.07
2019-03-22T10:29:31.083Z,103.97
2019-03-22T10:32:00.513Z,94.87
2019-03-22T10:34:29.964Z,106.10
2019-03-22T10:36:59.505Z,101.53
2019-03-22T10:39:28.909Z,102.63
2019-03-22T10:41:58.453Z,105.77
2019-03-22T10:44:28.832Z,111.20
2019-03-22T10:46:58.655Z,105.07
2019-03-22T10:49:28.182Z,102.70
2019-03-22T10:51:58.271Z,102.20
2019-03-22T10:54:28.159Z,112.10
2019-03-22T10:56:57.672Z,99.97
2019-03-22T10:59:27.166Z,102.17
2019-03-22T11:02:03.127Z,109.60
2019-03-22T11:04:27.689Z,101.00
2019-03-22T11:06:57.109Z,106.40
2019-03-22T11:09:26.528Z,98.23
2019-03-22T11:11:56.104Z,102.03
2019-03-22T11:14:25.824Z,101.10
2019-03-22T11:16:55.675Z,108.17
2019-03-22T11:19:25.128Z,106.73
2019-03-22T11:21:54.592Z,102.37
2019-03-22T11:24:24.134Z,108.10
2019-03-22T11:26:54.473Z,108.97
2019-03-22T11:29:23.945Z,107.70
2019-03-22T11:31:53.326Z,100.83
2019-03-22T11:34:22.958Z,113.33
2019-03-22T11:36:52.410Z,107.57
2019-03-22T11:39:21.951Z,105.30
2019-03-22T11:41:51.513Z,96.87
2019-03-22T11:44:21.234Z,102.60
2019-03-22T11:46:50.772Z,109.20
2019-03-22T11:49:20.310Z,106.20
2019-03-22T11:51:49.749Z,113.70
2019-03-22T11:54:19.122Z,103.97
2019-03-22T11:56:48.578Z,106.23
2019-03-22T11:59:18.009Z,98.43
2019-03-22T12:01:47.493Z,102.20
2019-03-22T12:04:16.887Z,100.00
2019-03-22T12:06:46.365Z,104.60
2019-03-22T12:09:15.976Z,107.40
2019-03-22T12:11:45.430Z,104.50
2019-03-22T12:14:14.807Z,108.27
2019-03-22T12:16:44.257Z,107.00
2019-03-22T12:19:13.750Z,113.20
2019-03-22T12:21:43.214Z,101.30
2019-03-22T12:24:12.711Z,95.13
2019-03-22T12:26:42.246Z,97.87
2019-03-22T12:29:11.681Z,101.77
2019-03-22T12:31:41.106Z,94.33
2019-03-22T12:34:10.468Z,91.53
2019-03-22T12:36:39.915Z,94.23
2019-03-22T12:39:10.566Z,88.53
2019-03-22T12:41:40.079Z,99.40
2019-03-22T12:44:09.671Z,96.70
2019-03-22T12:46:39.098Z,92.40
2019-03-22T12:49:08.476Z,95.23
2019-03-22T12:51:37.954Z,91.17
2019-03-22T12:54:07.342Z,91.67
2019-03-22T12:56:36.762Z,100.50
2019-03-22T12:59:06.216Z,85.50
2019-03-22T13:01:35.645Z,90.60
2019-03-22T13:04:05.373Z,88.57
2019-03-22T13:06:34.801Z,98.53
2019-03-22T13:09:06.024Z,97.87
2019-03-22T13:11:35.548Z,95.83
2019-03-22T13:14:04.994Z,93.93
2019-03-22T13:16:34.447Z,93.53
2019-03-22T13:19:03.934Z,89.67
2019-03-22T13:21:35.472Z,93.83
2019-03-22T13:24:04.907Z,90.00
2019-03-22T13:26:34.368Z,93.80
2019-03-22T13:29:04.322Z,89.90
2019-03-22T13:31:33.753Z,87.00
2019-03-22T13:34:03.318Z,92.33
2019-03-22T13:36:32.770Z,91.10
2019-03-22T13:39:02.255Z,84.80
2019-03-22T13:41:31.639Z,87.93
2019-03-22T13:44:01.283Z,87.50
2019-03-22T13:46:39.962Z,82.60
2019-03-22T13:49:01.910Z,81.50
2019-03-22T13:51:31.426Z,89.03
2019-03-22T13:54:00.770Z,77.93
2019-03-22T13:56:30.269Z,79.33
2019-03-22T13:58:59.682Z,73.17
2019-03-22T14:01:29.133Z,82.57
2019-03-22T14:03:58.590Z,77.80
2019-03-22T14:06:28.014Z,79.30
2019-03-22T14:08:57.382Z,72.17
2019-03-22T14:11:26.839Z,73.63
2019-03-22T14:13:56.320Z,71.17
2019-03-22T14:16:25.706Z,74.97
2019-03-22T14:18:55.181Z,71.47
2019-03-22T14:21:24.752Z,74.17
2019-03-22T14:23:54.097Z,69.07
2019-03-22T14:26:23.489Z,68.37
2019-03-22T14:28:52.861Z,65.27
2019-03-22T14:31:22.516Z,65.40
2019-03-22T14:33:51.882Z,71.23
2019-03-22T14:36:21.414Z,63.57
2019-03-22T14:38:50.773Z,61.33
2019-03-22T14:41:20.230Z,65.50
2019-03-22T14:43:49.702Z,63.73
2019-03-22T14:46:19.088Z,59.60
2019-03-22T14:48:48.641Z,59.97
2019-03-22T14:51:18.070Z,63.23
2019-03-22T14:53:47.653Z,64.10
2019-03-22T14:56:17.130Z,56.37
2019-03-22T14:58:46.599Z,56.40
2019-03-22T15:01:16.057Z,59.27
2019-03-22T15:03:45.586Z,54.40
2019-03-22T15:06:15.007Z,58.03
2019-03-22T15:08:44.620Z,55.23
2019-03-22T15:11:14.058Z,52.83
2019-03-22T15:14:02.658Z,52.73
2019-03-22T15:16:51.513Z,55.23
2019-03-22T15:19:52.417Z,58.23
2019-03-22T15:22:32.792Z,53.20
2019-03-22T15:25:23.311Z,50.23
2019-03-22T15:28:10.533Z,50.27
2019-03-22T15:31:08.157Z,47.30
2019-03-22T15:33:55.511Z,48.63
2019-03-22T15:36:50.649Z,55.83
2019-03-22T15:39:45.005Z,56.60
2019-03-22T15:42:14.510Z,58.97
2019-03-22T15:44:43.885Z,50.93
2019-03-22T15:47:13.497Z,57.40
2019-03-22T15:49:42.972Z,55.83
2019-03-22T15:52:12.494Z,57.37
2019-03-22T15:54:42.292Z,59.43
2019-03-22T15:57:11.839Z,54.30
2019-03-22T15:59:41.382Z,57.03
2019-03-22T16:02:10.895Z,52.30
2019-03-22T16:04:40.479Z,58.07
2019-03-22T16:07:09.906Z,55.43
2019-03-22T16:09:39.335Z,63.43
2019-03-22T16:12:08.767Z,60.73
2019-03-22T16:14:38.413Z,53.40
2019-03-22T16:17:07.977Z,66.90
2019-03-22T16:19:37.424Z,61.20
2019-03-22T16:22:11.667Z,80.07
2019-03-22T16:24:41.462Z,86.43
2019-03-22T16:27:10.913Z,91.03
2019-03-22T16:29:40.383Z,91.70
2019-03-22T16:32:09.861Z,104.90
2019-03-22T16:34:39.526Z,98.67
2019-03-22T16:37:08.954Z,94.70
2019-03-22T16:39:38.329Z,96.93
2019-03-22T16:42:07.806Z,108.10
2019-03-22T16:44:37.402Z,116.57
2019-03-22T16:47:07.114Z,109.07
2019-03-22T16:49:36.673Z,112.43
2019-03-22T16:52:06.282Z,112.10
2019-03-22T16:54:35.743Z,116.93
2019-03-22T16:57:05.305Z,117.50
2019-03-22T16:59:34.771Z,113.50
2019-03-22T17:02:04.292Z,117.67
2019-03-22T17:04:33.814Z,109.23
2019-03-22T17:07:03.387Z,114.40
2019-03-22T17:09:32.904Z,106.63
2019-03-22T17:12:02.618Z,117.70
2019-03-22T17:14:32.090Z,122.40
2019-03-22T17:17:01.489Z,113.60
2019-03-22T17:19:30.915Z,129.83
2019-03-22T17:22:00.414Z,118.23
2019-03-22T17:24:31.503Z,124.20
2019-03-22T17:27:01.075Z,122.43
2019-03-22T17:29:30.542Z,118.20
2019-03-22T17:32:00.207Z,119.10
2019-03-22T17:34:29.586Z,122.50
2019-03-22T17:36:59.086Z,115.07
2019-03-22T17:39:28.635Z,112.57
2019-03-22T17:41:58.207Z,121.53
2019-03-22T17:44:27.659Z,114.47
2019-03-22T17:46:57.181Z,117.07
2019-03-22T17:49:26.765Z,123.80
2019-03-22T17:51:56.374Z,119.17
2019-03-22T17:54:25.893Z,123.83
2019-03-22T17:56:55.386Z,114.47
2019-03-22T17:59:24.886Z,112.33
2019-03-22T18:01:54.490Z,119.37
2019-03-22T18:04:24.519Z,117.60
2019-03-22T18:06:54.138Z,112.87
2019-03-22T18:09:23.553Z,118.13
2019-03-22T18:11:53.062Z,114.37
2019-03-22T18:14:22.468Z,121.17
2019-03-22T18:16:51.946Z,123.20
2019-03-22T18:19:21.552Z,127.27
2019-03-22T18:21:51.172Z,111.30
2019-03-22T18:24:20.897Z,112.60
2019-03-22T18:26:50.480Z,115.70
2019-03-22T18:29:20.071Z,128.10
2019-03-22T18:31:49.741Z,120.90
2019-03-22T18:34:19.391Z,123.53
2019-03-22T18:36:48.876Z,110.37
2019-03-22T18:39:18.303Z,114.40
2019-03-22T18:41:47.952Z,114.20
2019-03-22T18:44:17.454Z,119.33
2019-03-22T18:46:47.069Z,118.13
2019-03-22T18:49:16.592Z,123.97
2019-03-22T18:51:47.825Z,119.60
2019-03-22T18:54:17.432Z,126.87
2019-03-22T18:56:47.015Z,116.60
2019-03-22T18:59:16.578Z,121.60
2019-03-22T19:01:46.164Z,130.53
2019-03-22T19:04:15.739Z,124.10
2019-03-22T19:06:45.110Z,116.43
2019-03-22T19:09:14.721Z,125.33
2019-03-22T19:11:44.137Z,133.37
2019-03-22T19:14:13.590Z,128.97
2019-03-22T19:16:43.005Z,131.93
2019-03-22T19:19:12.390Z,153.13
2019-03-22T19:21:41.778Z,138.57
2019-03-22T19:24:11.294Z,163.33
2019-03-22T19:26:40.746Z,154.23
2019-03-22T19:29:10.126Z,157.83
2019-03-22T19:31:39.597Z,153.40
2019-03-22T19:34:10.451Z,167.33
2019-03-22T19:36:40.018Z,175.17
2019-03-22T19:39:09.565Z,160.40
2019-03-22T19:41:39.031Z,152.57
2019-03-22T19:44:08.640Z,152.23
2019-03-22T19:46:38.062Z,165.10
2019-03-22T19:49:07.609Z,166.30
2019-03-22T19:51:37.054Z,160.77
2019-03-22T19:54:06.492Z,168.60
2019-03-22T19:56:36.181Z,166.27
2019-03-22T19:59:05.702Z,166.20
2019-03-22T20:01:35.110Z,175.40
2019-03-22T20:04:04.651Z,171.17
2019-03-22T20:06:34.297Z,153.17
2019-03-22T20:09:07.028Z,178.33
2019-03-22T20:11:36.672Z,182.87
2019-03-22T20:14:06.463Z,190.70
2019-03-22T20:16:35.916Z,170.60
2019-03-22T20:19:05.402Z,186.60
2019-03-22T20:21:34.856Z,168.47
2019-03-22T20:24:04.410Z,173.23
2019-03-22T20:26:33.819Z,201.17
2019-03-22T20:29:03.360Z,183.27
2019-03-22T20:31:32.850Z,202.77
2019-03-22T20:34:02.396Z,197.80
2019-03-22T20:36:31.946Z,189.17
2019-03-22T20:39:01.333Z,156.60
2019-03-22T20:41:30.897Z,179.27
2019-03-22T20:44:00.342Z,177.57
2019-03-22T20:46:29.780Z,175.97
2019-03-22T20:48:59.171Z,168.90
2019-03-22T20:51:28.650Z,165.47
2019-03-22T20:53:58.014Z,180.13
2019-03-22T20:56:27.482Z,170.03
2019-03-22T20:58:56.898Z,195.53
2019-03-22T21:01:26.405Z,172.60
2019-03-22T21:03:55.926Z,184.53
2019-03-22T21:06:25.397Z,195.77
2019-03-22T21:08:54.938Z,204.87
2019-03-22T21:11:24.500Z,151.70
2019-03-22T21:13:53.974Z,188.57
2019-03-22T21:16:23.371Z,171.87
2019-03-22T21:18:53.007Z,177.67
2019-03-22T21:21:25.401Z,164.20
2019-03-22T21:23:53.709Z,171.37
2019-03-22T21:26:23.151Z,181.03
2019-03-22T21:28:52.583Z,180.77
2019-03-22T21:31:21.950Z,155.37
2019-03-22T21:33:51.477Z,166.30
2019-03-22T21:36:20.934Z,150.50
2019-03-22T21:38:50.398Z,149.83
2019-03-22T21:41:19.777Z,161.37
2019-03-22T21:43:49.179Z,160.63
2019-03-22T21:46:18.616Z,150.00
2019-03-22T21:48:48.126Z,168.77
2019-03-22T21:51:17.567Z,161.30
2019-03-22T21:53:46.998Z,154.43
2019-03-22T21:56:16.562Z,135.97
2019-03-22T21:58:45.936Z,154.23
2019-03-22T22:01:15.454Z,154.50
2019-03-22T22:03:44.929Z,145.73
2019-03-22T22:06:14.445Z,138.50
2019-03-22T22:08:43.795Z,144.47
2019-03-22T22:11:13.309Z,132.77
2019-03-22T22:13:42.862Z,137.97
2019-03-22T22:16:12.366Z,137.13
2019-03-22T22:18:41.828Z,135.03
2019-03-22T22:21:11.387Z,126.80
2019-03-22T22:23:40.905Z,126.30
2019-03-22T22:26:10.294Z,118.83
2019-03-22T22:28:39.752Z,111.27
2019-03-22T22:31:09.118Z,98.43
2019-03-22T22:33:38.482Z,87.90
2019-03-22T22:36:07.913Z,92.80
2019-03-22T22:38:37.496Z,88.77
2019-03-22T22:41:07.041Z,92.80
2019-03-22T22:43:36.482Z,85.40
2019-03-22T22:46:06.281Z,84.97
2019-03-22T22:48:35.721Z,97.20
2019-03-22T22:51:05.284Z,85.53
2019-03-22T22:53:34.682Z,85.67
2019-03-22T22:56:04.159Z,87.47
2019-03-22T22:58:33.526Z,88.10
2019-03-22T23:01:03.033Z,82.10
2019-03-22T23:03:32.462Z,88.80
2019-03-22T23:06:09.310Z,76.20
2019-03-22T23:08:33.122Z,82.40
2019-03-22T23:11:02.552Z,88.47
2019-03-22T23:13:31.924Z,78.17
2019-03-22T23:16:01.475Z,82.83
2019-03-22T23:18:30.962Z,80.70
2019-03-22T23:21:00.393Z,70.50
2019-03-22T23:23:29.844Z,82.93
2019-03-22T23:25:59.382Z,81.03
2019-03-22T23:28:28.714Z,81.60
2019-03-22T23:30:58.086Z,73.73
2019-03-22T23:33:27.441Z,80.23
2019-03-22T23:35:56.821Z,73.40
2019-03-22T23:38:26.336Z,79.83
2019-03-22T23:40:55.857Z,72.47
2019-03-22T23:43:25.360Z,74.50
2019-03-22T23:45:54.933Z,81.90
2019-03-22T23:48:24.613Z,81.97
2019-03-22T23:50:54.189Z,78.10
2019-03-22T23:53:23.638Z,74.53
2019-03-22T23:55:53.069Z,83.70
2019-03-22T23:58:22.551Z,76.73
